createdAt,value
2018-02-23T07:25:54.524Z,116.00
2018-02-23T07:26:54.057Z,120.00
2018-02-23T07:28:58.159Z,120.00
2018-02-23T07:29:58.426Z,124.00
2018-02-23T07:30:58.294Z,112.00
2018-02-23T07:31:58.230Z,120.00
2018-02-23T07:32:58.254Z,120.00
2018-02-23T07:33:58.454Z,116.00
2018-02-23T07:34:58.946Z,112.00
2018-02-23T07:35:58.422Z,116.00
2018-02-23T07:36:58.538Z,116.00
2018-02-23T07:37:58.429Z,120.00
2018-02-23T07:38:58.469Z,124.00
2018-02-23T07:39:58.529Z,120.00
2018-02-23T07:40:58.538Z,124.00
2018-02-23T07:42:58.619Z,124.00
2018-02-23T07:46:57.149Z,128.00
2018-02-23T07:47:45.159Z,124.00
2018-02-23T07:49:49.548Z,132.00
2018-02-23T07:50:49.753Z,132.00
2018-02-23T07:51:49.327Z,124.00
2018-02-23T07:52:49.735Z,124.00
2018-02-23T07:53:50.272Z,128.00
2018-02-23T07:54:49.410Z,124.00
2018-02-23T07:55:49.462Z,120.00
2018-02-23T07:56:49.484Z,124.00
2018-02-23T07:57:49.506Z,112.00
2018-02-23T07:58:49.842Z,108.00
2018-02-23T07:59:50.024Z,88.00
2018-02-23T08:00:50.047Z,104.00
2018-02-23T08:01:49.660Z,128.00
2018-02-23T08:02:50.098Z,156.00
2018-02-23T08:03:49.737Z,164.00
2018-02-23T08:04:50.159Z,160.00
2018-02-23T08:05:49.813Z,144.00
2018-02-23T08:06:50.131Z,152.00
2018-02-23T08:07:49.972Z,160.00
2018-02-23T08:08:49.932Z,168.00
2018-02-23T08:09:50.081Z,152.00
2018-02-23T08:11:50.036Z,164.00
2018-02-23T08:12:50.086Z,168.00
2018-02-23T08:13:51.050Z,164.00
2018-02-23T08:14:50.150Z,160.00
2018-02-23T08:15:50.177Z,168.00
2018-02-23T08:16:50.236Z,184.00
2018-02-23T08:17:50.626Z,176.00
2018-02-23T08:18:50.397Z,176.00
2018-02-23T08:19:50.421Z,168.00
2018-02-23T08:20:50.371Z,172.00
2018-02-23T08:21:50.455Z,168.00
2018-02-23T08:22:51.126Z,176.00
2018-02-23T08:23:51.031Z,180.00
2018-02-23T08:25:50.688Z,176.00
2018-02-23T08:26:50.647Z,176.00
2018-02-23T08:27:51.061Z,176.00
2018-02-23T08:28:51.083Z,184.00
2018-02-23T08:29:50.710Z,180.00
2018-02-23T08:30:50.760Z,168.00
2018-02-23T08:37:59.508Z,108.00
